createdAt,value
2022-10-14T00:00:23.339Z,10.64
2022-10-14T00:01:23.439Z,10.61
2022-10-14T00:02:23.300Z,10.60
2022-10-14T00:03:23.285Z,10.59
2022-10-14T00:04:23.275Z,10.56
2022-10-14T00:05:23.271Z,10.55
2022-10-14T00:06:23.257Z,10.52
2022-10-14T00:07:23.567Z,10.48
2022-10-14T00:08:23.242Z,10.48
2022-10-14T00:09:23.226Z,10.47
2022-10-14T00:10:23.213Z,10.47
2022-10-14T00:11:23.203Z,10.44
2022-10-14T00:12:23.207Z,10.42
2022-10-14T00:13:23.182Z,10.40
2022-10-14T00:14:23.164Z,10.38
2022-10-14T00:15:23.172Z,10.36
2022-10-14T00:16:23.153Z,10.34
2022-10-14T00:17:23.361Z,10.34
2022-10-14T00:18:23.121Z,10.36
2022-10-14T00:19:23.118Z,10.34
2022-10-14T00:20:23.099Z,10.33
2022-10-14T00:21:23.095Z,10.34
2022-10-14T00:22:23.877Z,10.36
2022-10-14T00:23:23.072Z,10.38
2022-10-14T00:24:23.055Z,10.40
2022-10-14T00:25:23.064Z,10.38
2022-10-14T00:26:23.035Z,10.38
2022-10-14T00:27:23.171Z,10.36
2022-10-14T00:28:23.085Z,10.34
2022-10-14T00:29:23.001Z,10.34
2022-10-14T00:30:22.992Z,10.34
2022-10-14T00:31:22.993Z,10.33
2022-10-14T00:32:22.983Z,10.36
2022-10-14T00:33:22.966Z,10.38
2022-10-14T00:34:22.954Z,10.36
2022-10-14T00:35:22.937Z,10.38
2022-10-14T00:36:22.922Z,10.38
2022-10-14T00:37:23.247Z,10.40
2022-10-14T00:38:22.905Z,10.38
2022-10-14T00:39:22.899Z,10.38
2022-10-14T00:40:22.871Z,10.33
2022-10-14T00:41:22.871Z,10.32
2022-10-14T00:42:22.865Z,10.29
2022-10-14T00:43:22.850Z,10.26
2022-10-14T00:44:22.834Z,10.25
2022-10-14T00:45:22.823Z,10.22
2022-10-14T00:46:22.815Z,10.18
2022-10-14T00:47:23.169Z,10.17
2022-10-14T00:48:22.799Z,10.17
2022-10-14T00:49:22.783Z,10.17
2022-10-14T00:50:22.775Z,10.14
2022-10-14T00:51:22.779Z,10.12
2022-10-14T00:52:22.739Z,10.11
2022-10-14T00:53:22.765Z,10.12
2022-10-14T00:54:22.727Z,10.11
2022-10-14T00:55:22.717Z,10.12
2022-10-14T00:56:22.699Z,10.14
2022-10-14T00:57:23.115Z,10.12
2022-10-14T00:58:22.712Z,10.12
2022-10-14T00:59:22.680Z,10.11
2022-10-14T01:00:22.744Z,10.09
2022-10-14T01:01:22.654Z,10.07
2022-10-14T01:02:22.668Z,10.05
2022-10-14T01:03:22.623Z,10.05
2022-10-14T01:04:22.618Z,10.07
2022-10-14T01:05:22.624Z,10.07
2022-10-14T01:06:22.589Z,10.07
2022-10-14T01:07:22.893Z,10.08
2022-10-14T01:08:22.574Z,10.08
2022-10-14T01:09:22.566Z,10.09
2022-10-14T01:10:22.554Z,10.11
2022-10-14T01:11:22.532Z,10.09
2022-10-14T01:12:30.149Z,10.11
2022-10-14T01:13:22.524Z,10.09
2022-10-14T01:14:22.518Z,10.11
2022-10-14T01:15:22.516Z,10.09
2022-10-14T01:16:22.506Z,10.08
2022-10-14T01:17:22.475Z,10.08
2022-10-14T01:18:22.464Z,10.07
2022-10-14T01:19:22.442Z,10.07
2022-10-14T01:20:22.434Z,10.07
2022-10-14T01:21:22.436Z,10.07
2022-10-14T01:22:22.623Z,10.04
2022-10-14T01:23:22.411Z,10.05
2022-10-14T01:24:22.395Z,10.04
2022-10-14T01:25:22.372Z,10.02
2022-10-14T01:26:22.380Z,10.04
2022-10-14T01:27:22.358Z,10.04
2022-10-14T01:28:22.384Z,10.07
2022-10-14T01:29:22.337Z,10.08
2022-10-14T01:30:22.332Z,10.07
2022-10-14T01:31:22.323Z,10.08
2022-10-14T01:32:22.707Z,10.08
2022-10-14T01:33:22.289Z,10.07
2022-10-14T01:34:22.308Z,10.08
2022-10-14T01:35:22.273Z,10.09
2022-10-14T01:36:22.301Z,10.11
2022-10-14T01:37:22.256Z,10.08
2022-10-14T01:38:22.234Z,10.07
2022-10-14T01:39:22.223Z,10.05
2022-10-14T01:40:22.219Z,10.07
2022-10-14T01:41:22.200Z,10.04
2022-10-14T01:42:22.561Z,10.05
2022-10-14T01:43:22.179Z,10.08
2022-10-14T01:44:22.174Z,10.07
2022-10-14T01:45:22.188Z,10.07
2022-10-14T01:46:22.151Z,10.08
2022-10-14T01:47:22.148Z,10.05
2022-10-14T01:48:22.162Z,10.04
2022-10-14T01:49:22.141Z,10.02
2022-10-14T01:50:22.110Z,9.97
2022-10-14T01:51:22.084Z,9.94
2022-10-14T01:52:22.385Z,9.94
2022-10-14T01:53:22.081Z,9.91
2022-10-14T01:54:22.066Z,9.93
2022-10-14T01:55:22.070Z,9.93
2022-10-14T01:56:22.078Z,9.91
2022-10-14T01:57:22.036Z,9.91
2022-10-14T01:58:22.030Z,9.91
2022-10-14T01:59:22.022Z,9.90
2022-10-14T02:00:21.996Z,9.90
2022-10-14T02:01:22.004Z,9.84
2022-10-14T02:02:22.216Z,9.83
2022-10-14T02:03:21.955Z,9.78
2022-10-14T02:04:21.973Z,9.75
2022-10-14T02:05:21.937Z,9.74
2022-10-14T02:06:21.933Z,9.71
2022-10-14T02:07:21.915Z,9.69
2022-10-14T02:08:21.910Z,9.69
2022-10-14T02:09:21.899Z,9.68
2022-10-14T02:10:21.925Z,9.66
2022-10-14T02:11:21.883Z,9.66
2022-10-14T02:12:22.196Z,9.65
2022-10-14T02:13:21.856Z,9.65
2022-10-14T02:14:21.847Z,9.65
2022-10-14T02:15:21.832Z,9.66
2022-10-14T02:16:21.827Z,9.65
2022-10-14T02:17:21.828Z,9.65
2022-10-14T02:18:21.799Z,9.65
2022-10-14T02:19:21.780Z,9.64
2022-10-14T02:20:21.773Z,9.66
2022-10-14T02:21:21.816Z,9.68
2022-10-14T02:22:22.153Z,9.68
2022-10-14T02:23:21.741Z,9.66
2022-10-14T02:24:21.727Z,9.66
2022-10-14T02:25:21.727Z,9.65
2022-10-14T02:26:21.708Z,9.65
2022-10-14T02:27:21.696Z,9.65
2022-10-14T02:28:21.752Z,9.61
2022-10-14T02:29:21.690Z,9.64
2022-10-14T02:30:21.662Z,9.61
2022-10-14T02:31:21.647Z,9.61
2022-10-14T02:32:21.817Z,9.61
2022-10-14T02:33:21.664Z,9.60
2022-10-14T02:34:21.651Z,9.58
2022-10-14T02:35:21.615Z,9.57
2022-10-14T02:36:21.598Z,9.57
2022-10-14T02:37:21.593Z,9.58
2022-10-14T02:38:21.618Z,9.58
2022-10-14T02:39:21.561Z,9.60
2022-10-14T02:40:21.577Z,9.61
2022-10-14T02:41:21.555Z,9.60
2022-10-14T02:42:21.824Z,9.60
2022-10-14T02:43:21.534Z,9.61
2022-10-14T02:44:21.553Z,9.64
2022-10-14T02:45:21.518Z,9.65
2022-10-14T02:46:21.491Z,9.65
2022-10-14T02:47:21.478Z,9.65
2022-10-14T02:48:21.502Z,9.66
2022-10-14T02:49:21.484Z,9.66
2022-10-14T02:50:21.487Z,9.68
2022-10-14T02:51:21.434Z,9.68
2022-10-14T02:52:21.703Z,9.68
2022-10-14T02:53:21.423Z,9.68
2022-10-14T02:54:21.423Z,9.68
2022-10-14T02:55:21.419Z,9.69
2022-10-14T02:56:21.389Z,9.71
2022-10-14T02:57:21.369Z,9.71
2022-10-14T02:58:21.377Z,9.72
2022-10-14T02:59:21.351Z,9.74
2022-10-14T03:00:21.381Z,9.74
2022-10-14T03:01:21.340Z,9.76
2022-10-14T03:02:21.677Z,9.76
2022-10-14T03:03:21.305Z,9.78
2022-10-14T03:04:21.293Z,9.79
2022-10-14T03:05:21.316Z,9.79
2022-10-14T03:06:21.276Z,9.83
2022-10-14T03:07:21.256Z,9.83
2022-10-14T03:08:21.245Z,9.84
2022-10-14T03:09:21.237Z,9.84
2022-10-14T03:10:21.242Z,9.86
2022-10-14T03:11:21.233Z,9.87
2022-10-14T03:12:21.522Z,9.90
2022-10-14T03:13:21.189Z,9.90
2022-10-14T03:14:21.189Z,9.94
2022-10-14T03:15:21.183Z,9.94
2022-10-14T03:16:21.189Z,9.96
2022-10-14T03:17:21.163Z,9.94
2022-10-14T03:18:21.144Z,9.94
2022-10-14T03:19:21.364Z,9.96
2022-10-14T03:20:21.168Z,9.96
2022-10-14T03:21:21.150Z,9.99
2022-10-14T03:22:21.371Z,9.97
2022-10-14T03:23:21.085Z,9.99
2022-10-14T03:24:21.073Z,9.99
2022-10-14T03:25:21.054Z,9.99
2022-10-14T03:26:21.058Z,9.99
2022-10-14T03:27:21.051Z,10.01
2022-10-14T03:28:21.065Z,10.01
2022-10-14T03:29:21.017Z,9.99
2022-10-14T03:30:21.012Z,9.96
2022-10-14T03:31:20.998Z,9.96
2022-10-14T03:32:21.312Z,9.93
2022-10-14T03:33:23.603Z,9.91
2022-10-14T03:34:20.965Z,9.90
2022-10-14T03:35:20.958Z,9.89
2022-10-14T03:36:20.957Z,9.89
2022-10-14T03:37:20.932Z,9.90
2022-10-14T03:38:20.953Z,9.89
2022-10-14T03:39:20.906Z,9.89
2022-10-14T03:40:20.911Z,9.87
2022-10-14T03:41:20.894Z,9.87
2022-10-14T03:42:21.126Z,9.87
2022-10-14T03:43:20.874Z,9.84
2022-10-14T03:44:20.861Z,9.84
2022-10-14T03:45:20.857Z,9.83
2022-10-14T03:46:20.829Z,9.79
2022-10-14T03:47:20.829Z,9.78
2022-10-14T03:48:20.816Z,9.74
2022-10-14T03:49:20.813Z,9.71
2022-10-14T03:50:20.781Z,9.69
2022-10-14T03:51:20.773Z,9.68
2022-10-14T03:52:21.163Z,9.66
2022-10-14T03:53:20.762Z,9.68
2022-10-14T03:54:20.770Z,9.66
2022-10-14T03:55:20.747Z,9.66
2022-10-14T03:56:20.724Z,9.66
2022-10-14T03:57:20.753Z,9.66
2022-10-14T03:58:20.701Z,9.66
2022-10-14T03:59:20.702Z,9.68
2022-10-14T04:00:20.714Z,9.69
2022-10-14T04:01:20.742Z,9.69
2022-10-14T04:02:20.921Z,9.71
2022-10-14T04:03:20.641Z,9.72
2022-10-14T04:04:20.633Z,9.72
2022-10-14T04:05:20.627Z,9.74
2022-10-14T04:06:20.648Z,9.75
2022-10-14T04:07:20.638Z,9.74
2022-10-14T04:08:20.597Z,9.74
2022-10-14T04:09:20.578Z,9.74
2022-10-14T04:10:20.568Z,9.71
2022-10-14T04:11:20.575Z,9.72
2022-10-14T04:12:20.797Z,9.72
2022-10-14T04:13:20.539Z,9.72
2022-10-14T04:14:20.526Z,9.74
2022-10-14T04:15:20.515Z,9.72
2022-10-14T04:16:20.496Z,9.72
2022-10-14T04:17:20.502Z,9.74
2022-10-14T04:18:20.487Z,9.72
2022-10-14T04:19:20.467Z,9.72
2022-10-14T04:20:20.464Z,9.72
2022-10-14T04:21:20.450Z,9.71
2022-10-14T04:22:20.821Z,9.71
2022-10-14T04:23:20.438Z,9.69
2022-10-14T04:24:20.417Z,9.66
2022-10-14T04:25:20.405Z,9.68
2022-10-14T04:26:20.412Z,9.66
2022-10-14T04:27:20.387Z,9.65
2022-10-14T04:28:20.482Z,9.66
2022-10-14T04:29:20.371Z,9.66
2022-10-14T04:30:20.344Z,9.68
2022-10-14T04:31:20.343Z,9.68
2022-10-14T04:32:20.786Z,9.68
2022-10-14T04:33:20.330Z,9.69
2022-10-14T04:34:20.310Z,9.71
2022-10-14T04:35:20.309Z,9.71
2022-10-14T04:36:20.281Z,9.74
2022-10-14T04:37:20.288Z,9.74
2022-10-14T04:38:20.261Z,9.72
2022-10-14T04:39:20.325Z,9.75
2022-10-14T04:40:20.246Z,9.74
2022-10-14T04:41:20.236Z,9.74
2022-10-14T04:42:20.663Z,9.72
2022-10-14T04:43:20.254Z,9.74
2022-10-14T04:44:20.215Z,9.74
2022-10-14T04:45:20.223Z,9.75
2022-10-14T04:46:20.181Z,9.74
2022-10-14T04:47:20.252Z,9.74
2022-10-14T04:48:20.253Z,9.72
2022-10-14T04:49:20.168Z,9.72
2022-10-14T04:50:20.170Z,9.71
2022-10-14T04:51:20.198Z,9.71
2022-10-14T04:52:20.622Z,9.69
2022-10-14T04:53:22.308Z,9.72
2022-10-14T04:54:20.179Z,9.72
2022-10-14T04:55:20.185Z,9.72
2022-10-14T04:56:20.124Z,9.74
2022-10-14T04:57:20.093Z,9.75
2022-10-14T04:58:20.064Z,9.75
2022-10-14T04:59:20.139Z,9.76
2022-10-14T05:00:20.255Z,9.78
2022-10-14T05:01:20.056Z,9.78
2022-10-14T05:02:20.417Z,9.79
2022-10-14T05:03:19.982Z,9.79
2022-10-14T05:04:19.973Z,9.79
2022-10-14T05:05:20.048Z,9.79
2022-10-14T05:06:19.998Z,9.81
2022-10-14T05:07:20.033Z,9.79
2022-10-14T05:08:19.966Z,9.81
2022-10-14T05:09:19.980Z,9.79
2022-10-14T05:10:19.951Z,9.79
2022-10-14T05:11:19.936Z,9.81
2022-10-14T05:12:20.303Z,9.79
2022-10-14T05:13:19.920Z,9.79
2022-10-14T05:14:19.893Z,9.83
2022-10-14T05:15:19.959Z,9.81
2022-10-14T05:16:19.862Z,9.83
2022-10-14T05:17:19.880Z,9.83
2022-10-14T05:18:19.859Z,9.84
2022-10-14T05:19:19.857Z,9.84
2022-10-14T05:20:19.894Z,9.86
2022-10-14T05:21:19.854Z,9.84
2022-10-14T05:22:20.078Z,9.84
2022-10-14T05:23:19.783Z,9.84
2022-10-14T05:24:19.751Z,9.86
2022-10-14T05:25:19.759Z,9.86
2022-10-14T05:26:19.732Z,9.86
2022-10-14T05:27:19.728Z,9.87
2022-10-14T05:28:19.790Z,9.87
2022-10-14T05:29:19.701Z,9.87
2022-10-14T05:30:19.688Z,9.89
2022-10-14T05:31:19.680Z,9.89
2022-10-14T05:32:20.081Z,9.87
2022-10-14T05:33:19.672Z,9.89
2022-10-14T05:34:19.663Z,9.89
2022-10-14T05:35:34.182Z,9.89
2022-10-14T05:36:19.648Z,9.89
2022-10-14T05:37:19.656Z,9.91
2022-10-14T05:38:19.626Z,9.93
2022-10-14T05:39:19.640Z,9.90
2022-10-14T05:40:19.692Z,9.93
2022-10-14T05:41:19.593Z,9.93
2022-10-14T05:42:19.867Z,9.93
2022-10-14T05:43:19.607Z,9.96
2022-10-14T05:44:19.664Z,9.97
2022-10-14T05:45:19.593Z,9.99
2022-10-14T05:46:19.511Z,10.01
2022-10-14T05:47:19.501Z,10.02
2022-10-14T05:48:19.498Z,10.02
2022-10-14T05:49:19.529Z,10.01
2022-10-14T05:50:19.482Z,10.02
2022-10-14T05:51:19.467Z,10.04
2022-10-14T05:52:19.754Z,10.05
2022-10-14T05:53:19.513Z,10.04
2022-10-14T05:54:19.428Z,10.05
2022-10-14T05:55:19.438Z,10.04
2022-10-14T05:56:19.421Z,10.05
2022-10-14T05:57:19.393Z,10.04
2022-10-14T05:58:19.390Z,10.05
2022-10-14T05:59:19.385Z,10.04
2022-10-14T06:00:23.287Z,10.04
2022-10-14T06:01:19.375Z,10.04
2022-10-14T06:02:19.667Z,10.04
2022-10-14T06:03:19.445Z,10.04
2022-10-14T06:04:19.336Z,10.05
2022-10-14T06:05:19.307Z,10.07
2022-10-14T06:06:19.310Z,10.07
2022-10-14T06:07:19.286Z,10.08
2022-10-14T06:08:19.263Z,10.07
2022-10-14T06:09:19.270Z,10.09
2022-10-14T06:10:19.246Z,10.11
2022-10-14T06:11:19.257Z,10.11
2022-10-14T06:12:19.622Z,10.11
2022-10-14T06:13:19.218Z,10.11
2022-10-14T06:14:19.217Z,10.12
2022-10-14T06:15:19.205Z,10.14
2022-10-14T06:16:19.197Z,10.17
2022-10-14T06:17:19.211Z,10.14
2022-10-14T06:18:19.161Z,10.17
2022-10-14T06:19:19.168Z,10.17
2022-10-14T06:20:19.135Z,10.17
2022-10-14T06:21:19.135Z,10.18
2022-10-14T06:22:19.510Z,10.18
2022-10-14T06:23:19.120Z,10.18
2022-10-14T06:24:19.198Z,10.22
2022-10-14T06:25:19.100Z,10.20
2022-10-14T06:26:19.075Z,10.23
2022-10-14T06:27:19.069Z,10.22
2022-10-14T06:28:19.127Z,10.25
2022-10-14T06:29:19.046Z,10.26
2022-10-14T06:30:19.042Z,10.29
2022-10-14T06:31:19.079Z,10.29
2022-10-14T06:32:19.335Z,10.32
2022-10-14T06:33:19.017Z,10.32
2022-10-14T06:34:18.995Z,10.36
2022-10-14T06:35:18.973Z,10.36
2022-10-14T06:36:18.965Z,10.38
2022-10-14T06:37:18.957Z,10.38
2022-10-14T06:38:18.944Z,10.40
2022-10-14T06:39:18.949Z,10.42
2022-10-14T06:40:18.919Z,10.45
2022-10-14T06:41:18.929Z,10.48
2022-10-14T06:42:18.902Z,10.52
2022-10-14T06:43:18.890Z,10.53
2022-10-14T06:44:18.924Z,10.56
2022-10-14T06:45:18.879Z,10.61
2022-10-14T06:46:18.857Z,10.63
2022-10-14T06:47:18.839Z,10.66
2022-10-14T06:48:18.853Z,10.68
2022-10-14T06:49:18.826Z,10.70
2022-10-14T06:50:18.814Z,10.73
2022-10-14T06:51:18.802Z,10.73
2022-10-14T06:52:19.115Z,10.79
2022-10-14T06:53:18.848Z,10.81
2022-10-14T06:54:18.772Z,10.82
2022-10-14T06:55:18.796Z,10.84
2022-10-14T06:56:18.738Z,10.85
2022-10-14T06:57:18.740Z,10.86
2022-10-14T06:58:18.713Z,10.89
2022-10-14T06:59:18.714Z,10.91
2022-10-14T07:00:18.721Z,10.94
2022-10-14T07:01:18.769Z,10.97
2022-10-14T07:02:18.705Z,11.00
2022-10-14T07:03:18.673Z,11.02
2022-10-14T07:04:18.659Z,11.03
2022-10-14T07:05:18.652Z,11.03
2022-10-14T07:06:18.672Z,11.04
2022-10-14T07:07:18.616Z,11.06
2022-10-14T07:08:18.619Z,11.06
2022-10-14T07:09:18.607Z,11.09
2022-10-14T07:10:18.601Z,11.07
2022-10-14T07:11:18.592Z,11.10
2022-10-14T07:12:18.713Z,11.11
2022-10-14T07:13:18.559Z,11.14
2022-10-14T07:14:18.586Z,11.15
2022-10-14T07:15:18.527Z,11.15
2022-10-14T07:16:18.533Z,11.17
2022-10-14T07:17:18.544Z,11.18
2022-10-14T07:18:18.503Z,11.18
2022-10-14T07:19:18.487Z,11.18
2022-10-14T07:20:18.498Z,11.19
2022-10-14T07:21:18.482Z,11.19
2022-10-14T07:22:18.521Z,11.21
2022-10-14T07:23:18.465Z,11.22
2022-10-14T07:24:18.433Z,11.21
2022-10-14T07:25:18.426Z,11.25
2022-10-14T07:26:18.428Z,11.25
2022-10-14T07:27:18.517Z,11.24
2022-10-14T07:28:18.438Z,11.25
2022-10-14T07:29:18.395Z,11.27
2022-10-14T07:30:18.381Z,11.28
2022-10-14T07:31:18.391Z,11.32
2022-10-14T07:32:18.340Z,11.32
2022-10-14T07:33:18.342Z,11.35
2022-10-14T07:34:18.332Z,11.35
2022-10-14T07:35:18.315Z,11.36
2022-10-14T07:36:21.552Z,11.39
2022-10-14T07:37:18.319Z,11.39
2022-10-14T07:38:18.276Z,11.42
2022-10-14T07:39:18.271Z,11.43
2022-10-14T07:40:18.254Z,11.44
2022-10-14T07:41:18.254Z,11.46
2022-10-14T07:42:18.255Z,11.49
2022-10-14T07:43:18.222Z,11.52
2022-10-14T07:44:19.097Z,11.57
2022-10-14T07:45:18.209Z,11.58
2022-10-14T07:46:18.198Z,11.62
2022-10-14T07:47:18.233Z,11.67
2022-10-14T07:48:27.254Z,11.70
2022-10-14T07:49:18.178Z,11.72
2022-10-14T07:50:18.148Z,11.76
2022-10-14T07:51:18.146Z,11.79
2022-10-14T07:52:18.159Z,11.80
2022-10-14T07:53:18.122Z,11.80
2022-10-14T07:54:18.107Z,11.85
2022-10-14T07:55:18.116Z,11.85
2022-10-14T07:56:18.086Z,11.90
2022-10-14T07:57:18.083Z,11.91
2022-10-14T07:58:18.061Z,11.95
2022-10-14T07:59:18.060Z,11.96
2022-10-14T08:00:18.052Z,11.98
2022-10-14T08:01:18.077Z,11.98
2022-10-14T08:02:18.051Z,11.99
2022-10-14T08:03:18.028Z,11.99
2022-10-14T08:04:18.000Z,11.99
2022-10-14T08:05:36.981Z,11.99
2022-10-14T08:06:18.026Z,12.01
2022-10-14T08:07:17.977Z,12.04
2022-10-14T08:08:17.959Z,12.05
2022-10-14T08:09:17.958Z,12.05
2022-10-14T08:10:17.928Z,12.09
2022-10-14T08:11:17.920Z,12.12
2022-10-14T08:12:17.948Z,12.13
2022-10-14T08:13:17.908Z,12.13
2022-10-14T08:14:17.904Z,12.17
2022-10-14T08:15:17.879Z,12.17
2022-10-14T08:16:17.892Z,12.20
2022-10-14T08:17:17.886Z,12.24
2022-10-14T08:18:17.855Z,12.27
2022-10-14T08:19:17.833Z,12.32
2022-10-14T08:20:17.912Z,12.37
2022-10-14T08:21:17.813Z,12.41
2022-10-14T08:22:17.858Z,12.45
2022-10-14T08:23:19.855Z,12.49
2022-10-14T08:24:17.775Z,12.53
2022-10-14T08:25:17.792Z,12.59
2022-10-14T08:26:17.767Z,12.60
2022-10-14T08:27:17.749Z,12.68
2022-10-14T08:28:17.917Z,12.71
2022-10-14T08:29:17.716Z,12.75
2022-10-14T08:30:17.717Z,12.79
2022-10-14T08:31:17.719Z,12.82
2022-10-14T08:32:17.706Z,12.85
2022-10-14T08:33:17.684Z,12.90
2022-10-14T08:34:17.672Z,12.95
2022-10-14T08:35:17.646Z,13.00
2022-10-14T08:36:17.642Z,13.05
2022-10-14T08:37:17.645Z,13.11
2022-10-14T08:38:17.636Z,13.17
2022-10-14T08:39:17.605Z,13.22
2022-10-14T08:40:17.601Z,13.28
2022-10-14T08:41:17.581Z,13.33
2022-10-14T08:42:17.583Z,13.39
2022-10-14T08:43:17.591Z,13.45
2022-10-14T08:44:17.553Z,13.52
2022-10-14T08:45:17.552Z,13.59
2022-10-14T08:46:17.553Z,13.62
2022-10-14T08:47:17.517Z,13.69
2022-10-14T08:48:17.556Z,13.75
2022-10-14T08:49:17.524Z,13.78
2022-10-14T08:50:17.498Z,13.84
2022-10-14T08:51:17.475Z,13.87
2022-10-14T08:52:17.470Z,13.89
2022-10-14T08:53:17.460Z,13.95
2022-10-14T08:54:17.459Z,13.95
2022-10-14T08:55:17.434Z,13.99
2022-10-14T08:56:17.432Z,14.00
2022-10-14T08:57:17.416Z,14.03
2022-10-14T08:58:17.530Z,14.06
2022-10-14T08:59:17.402Z,14.07
2022-10-14T09:00:17.396Z,14.09
2022-10-14T09:01:17.383Z,14.12
2022-10-14T09:02:17.359Z,14.17
2022-10-14T09:03:17.350Z,14.20
2022-10-14T09:04:17.429Z,14.21
2022-10-14T09:05:17.357Z,14.22
2022-10-14T09:06:17.309Z,14.28
2022-10-14T09:07:17.302Z,14.29
2022-10-14T09:08:17.322Z,14.35
2022-10-14T09:09:17.304Z,14.37
2022-10-14T09:10:17.272Z,14.40
2022-10-14T09:11:17.264Z,14.43
2022-10-14T09:12:17.244Z,14.45
2022-10-14T09:13:17.251Z,14.50
2022-10-14T09:14:17.287Z,14.52
2022-10-14T09:15:17.248Z,14.55
2022-10-14T09:16:17.210Z,14.58
2022-10-14T09:17:17.198Z,14.60
2022-10-14T09:18:17.191Z,14.64
2022-10-14T09:19:17.183Z,14.65
2022-10-14T09:20:17.230Z,14.70
2022-10-14T09:21:27.682Z,14.70
2022-10-14T09:22:17.196Z,14.73
2022-10-14T09:23:17.139Z,14.78
2022-10-14T09:24:17.131Z,14.78
2022-10-14T09:25:17.125Z,14.81
2022-10-14T09:26:17.100Z,14.83
2022-10-14T09:27:17.070Z,14.83
2022-10-14T09:28:17.116Z,14.84
2022-10-14T09:29:17.064Z,14.86
2022-10-14T09:30:17.123Z,14.86
2022-10-14T09:31:17.070Z,14.89
2022-10-14T09:32:17.032Z,14.92
2022-10-14T09:33:17.009Z,14.92
2022-10-14T09:34:17.009Z,14.95
2022-10-14T09:35:17.001Z,14.96
2022-10-14T09:36:16.992Z,14.99
2022-10-14T09:37:16.971Z,15.03
2022-10-14T09:38:16.959Z,15.07
2022-10-14T09:39:16.967Z,15.09
2022-10-14T09:40:16.947Z,15.10
2022-10-14T09:41:16.959Z,15.11
2022-10-14T09:42:16.919Z,15.11
2022-10-14T09:43:16.909Z,15.14
2022-10-14T09:44:16.910Z,15.14
2022-10-14T09:45:16.893Z,15.17
2022-10-14T09:46:16.885Z,15.20
2022-10-14T09:47:16.853Z,15.23
2022-10-14T09:48:16.843Z,15.27
2022-10-14T09:49:16.831Z,15.28
2022-10-14T09:50:16.830Z,15.31
2022-10-14T09:51:16.824Z,15.35
2022-10-14T09:52:16.801Z,15.38
2022-10-14T09:53:16.790Z,15.41
2022-10-14T09:54:16.803Z,15.46
2022-10-14T09:55:16.784Z,15.50
2022-10-14T09:56:18.944Z,15.51
2022-10-14T09:57:16.799Z,15.57
2022-10-14T09:58:16.747Z,15.60
2022-10-14T09:59:16.753Z,15.65
2022-10-14T10:00:16.723Z,15.68
2022-10-14T10:01:16.729Z,15.72
2022-10-14T10:02:16.737Z,15.69
2022-10-14T10:03:17.275Z,15.71
2022-10-14T10:04:16.676Z,15.74
2022-10-14T10:05:16.686Z,15.75
2022-10-14T10:06:16.663Z,15.78
2022-10-14T10:07:16.643Z,15.80
2022-10-14T10:08:16.644Z,15.80
2022-10-14T10:09:16.613Z,15.84
2022-10-14T10:10:16.608Z,15.90
2022-10-14T10:11:16.591Z,15.93
2022-10-14T10:12:16.630Z,15.97
2022-10-14T10:14:16.556Z,16.05
2022-10-14T10:15:16.560Z,16.08
2022-10-14T10:16:16.530Z,16.11
2022-10-14T10:17:16.566Z,16.12
2022-10-14T10:18:16.529Z,16.14
2022-10-14T10:19:16.505Z,16.15
2022-10-14T10:20:16.484Z,16.20
2022-10-14T10:21:16.486Z,16.23
2022-10-14T10:22:16.618Z,16.27
2022-10-14T10:23:16.494Z,16.28
2022-10-14T10:24:16.449Z,16.30
2022-10-14T10:25:16.438Z,16.31
2022-10-14T10:26:16.431Z,16.34
2022-10-14T10:27:16.422Z,16.34
2022-10-14T10:28:16.568Z,16.35
2022-10-14T10:29:16.419Z,16.38
2022-10-14T10:30:16.414Z,16.39
2022-10-14T10:31:16.563Z,16.41
2022-10-14T10:32:16.355Z,16.39
2022-10-14T10:33:16.352Z,16.41
2022-10-14T10:34:16.394Z,16.42
2022-10-14T10:35:16.342Z,16.42
2022-10-14T10:36:16.360Z,16.46
2022-10-14T10:37:16.314Z,16.50
2022-10-14T10:38:16.297Z,16.60
2022-10-14T10:39:16.292Z,16.66
2022-10-14T10:40:17.408Z,16.68
2022-10-14T10:41:16.283Z,16.71
2022-10-14T10:42:16.258Z,16.73
2022-10-14T10:43:16.235Z,16.73
2022-10-14T10:44:16.239Z,16.75
2022-10-14T10:45:16.333Z,16.76
2022-10-14T10:46:16.201Z,16.78
2022-10-14T10:47:16.196Z,16.82
2022-10-14T10:48:16.187Z,16.86
2022-10-14T10:49:16.189Z,16.91
2022-10-14T10:50:16.375Z,16.94
2022-10-14T10:51:16.282Z,16.96
2022-10-14T10:52:18.868Z,16.97
2022-10-14T10:53:16.155Z,17.01
2022-10-14T10:54:16.126Z,17.04
2022-10-14T10:55:16.150Z,17.04
2022-10-14T10:56:16.100Z,17.04
2022-10-14T10:57:16.081Z,17.04
2022-10-14T10:58:16.204Z,17.04
2022-10-14T10:59:16.084Z,17.06
2022-10-14T11:00:16.206Z,17.06
2022-10-14T11:01:16.172Z,17.06
2022-10-14T11:02:16.026Z,17.04
2022-10-14T11:03:16.020Z,17.06
2022-10-14T11:04:16.002Z,17.07
2022-10-14T11:05:15.989Z,17.08
2022-10-14T11:06:16.004Z,17.12
2022-10-14T11:07:15.987Z,17.16
2022-10-14T11:08:15.957Z,17.18
2022-10-14T11:09:15.951Z,17.21
2022-10-14T11:10:15.938Z,17.22
2022-10-14T11:11:15.973Z,17.28
2022-10-14T11:12:15.924Z,17.31
2022-10-14T11:13:15.931Z,17.33
2022-10-14T11:14:15.883Z,17.37
2022-10-14T11:15:15.992Z,17.40
2022-10-14T11:16:15.867Z,17.59
2022-10-14T11:17:15.879Z,17.84
2022-10-14T11:18:15.857Z,18.03
2022-10-14T11:19:15.840Z,18.20
2022-10-14T11:20:15.927Z,18.25
2022-10-14T11:21:15.845Z,18.27
2022-10-14T11:22:15.834Z,18.27
2022-10-14T11:23:15.795Z,18.26
2022-10-14T11:25:15.774Z,18.25
2022-10-14T11:26:15.763Z,18.23
2022-10-14T11:27:18.623Z,18.15
2022-10-14T11:28:15.820Z,18.14
2022-10-14T11:29:15.737Z,18.20
2022-10-14T11:30:15.845Z,18.33
2022-10-14T11:31:15.724Z,18.33
2022-10-14T11:32:16.548Z,18.29
2022-10-14T11:33:15.703Z,18.29
2022-10-14T11:34:15.678Z,18.36
2022-10-14T11:35:15.696Z,18.37
2022-10-14T11:36:15.657Z,18.41
2022-10-14T11:37:15.645Z,18.48
2022-10-14T11:38:15.644Z,18.65
2022-10-14T11:39:15.638Z,18.72
2022-10-14T11:40:15.609Z,18.76
2022-10-14T11:41:15.610Z,18.85
2022-10-14T11:42:15.586Z,18.87
2022-10-14T11:43:15.591Z,18.85
2022-10-14T11:44:15.575Z,18.82
2022-10-14T11:45:17.353Z,18.78
2022-10-14T11:46:15.558Z,18.70
2022-10-14T11:47:15.537Z,18.67
2022-10-14T11:48:15.524Z,18.66
2022-10-14T11:49:15.520Z,18.66
2022-10-14T11:50:15.516Z,18.66
2022-10-14T11:51:15.492Z,18.65
2022-10-14T11:52:15.499Z,18.63
2022-10-14T11:53:15.469Z,18.65
2022-10-14T11:54:15.485Z,18.66
2022-10-14T11:55:15.486Z,18.65
2022-10-14T11:56:15.430Z,18.67
2022-10-14T11:57:15.439Z,18.62
2022-10-14T11:58:15.401Z,18.57
2022-10-14T11:59:15.425Z,18.51
2022-10-14T12:00:15.542Z,18.47
2022-10-14T12:01:15.391Z,18.44
2022-10-14T12:02:15.466Z,18.45
2022-10-14T12:03:15.355Z,18.44
2022-10-14T12:04:15.349Z,18.39
2022-10-14T12:05:15.346Z,18.39
2022-10-14T12:06:15.338Z,18.36
2022-10-14T12:07:15.311Z,18.36
2022-10-14T12:08:15.294Z,18.37
2022-10-14T12:09:15.294Z,18.33
2022-10-14T12:10:15.288Z,18.33
2022-10-14T12:11:15.291Z,18.30
2022-10-14T12:12:15.347Z,18.29
2022-10-14T12:13:15.241Z,18.27
2022-10-14T12:14:15.234Z,18.27
2022-10-14T12:15:15.228Z,18.26
2022-10-14T12:16:15.244Z,18.29
2022-10-14T12:17:17.648Z,18.29
2022-10-14T12:18:15.188Z,18.32
2022-10-14T12:19:15.183Z,18.33
2022-10-14T12:20:15.170Z,18.32
2022-10-14T12:21:15.154Z,18.33
2022-10-14T12:22:15.164Z,18.27
2022-10-14T12:23:15.162Z,18.25
2022-10-14T12:24:15.139Z,18.20
2022-10-14T12:25:15.114Z,18.14
2022-10-14T12:26:15.104Z,18.12
2022-10-14T12:27:15.343Z,18.05
2022-10-14T12:28:15.128Z,18.00
2022-10-14T12:29:15.098Z,17.95
2022-10-14T12:30:15.055Z,17.93
2022-10-14T12:31:15.049Z,17.90
2022-10-14T12:32:15.058Z,17.84
2022-10-14T12:33:17.775Z,17.82
2022-10-14T12:34:15.028Z,17.79
2022-10-14T12:35:14.996Z,17.79
2022-10-14T12:36:14.987Z,17.79
2022-10-14T12:37:14.986Z,17.81
2022-10-14T12:38:14.990Z,17.82
2022-10-14T12:39:14.992Z,17.81
2022-10-14T12:40:14.944Z,17.79
2022-10-14T12:41:14.979Z,17.78
2022-10-14T12:42:14.923Z,17.78
2022-10-14T12:43:14.944Z,17.79
2022-10-14T12:44:14.906Z,17.78
2022-10-14T12:45:14.892Z,17.79
2022-10-14T12:46:14.883Z,17.79
2022-10-14T12:47:14.888Z,17.82
2022-10-14T12:48:14.891Z,17.81
2022-10-14T12:49:14.864Z,17.81
2022-10-14T12:50:14.841Z,17.81
2022-10-14T12:51:14.833Z,17.82
2022-10-14T12:52:14.865Z,17.82
2022-10-14T12:53:14.803Z,17.86
2022-10-14T12:54:14.821Z,17.92
2022-10-14T12:55:14.783Z,17.97
2022-10-14T12:56:14.776Z,18.03
2022-10-14T12:57:14.768Z,18.10
2022-10-14T12:58:14.746Z,18.15
2022-10-14T13:00:14.740Z,18.26
2022-10-14T13:01:14.779Z,18.32
2022-10-14T13:02:14.943Z,18.36
2022-10-14T13:03:14.744Z,18.44